createdAt,value
2023-02-22T00:00:19.597Z,7.69
2023-02-22T00:02:29.135Z,7.66
2023-02-22T00:04:35.630Z,7.62
2023-02-22T00:06:40.527Z,7.59
2023-02-22T00:08:43.985Z,7.59
2023-02-22T00:10:47.390Z,7.59
2023-02-22T00:12:51.190Z,7.59
2023-02-22T00:14:54.864Z,7.60
2023-02-22T00:16:59.911Z,7.60
2023-02-22T00:19:03.522Z,7.60
2023-02-22T00:21:10.696Z,7.62
2023-02-22T00:23:19.057Z,7.62
2023-02-22T00:25:24.869Z,7.63
2023-02-22T00:27:28.299Z,7.63
2023-02-22T00:29:34.400Z,7.66
2023-02-22T00:31:39.343Z,7.65
2023-02-22T00:33:43.383Z,7.67
2023-02-22T00:35:47.351Z,7.68
2023-02-22T00:37:51.331Z,7.70
2023-02-22T00:39:56.009Z,7.71
2023-02-22T00:41:59.215Z,7.71
2023-02-22T00:44:02.666Z,7.72
2023-02-22T00:46:06.261Z,7.70
2023-02-22T00:48:10.386Z,7.70
2023-02-22T00:50:13.858Z,7.69
2023-02-22T00:52:17.335Z,7.69
2023-02-22T00:54:20.776Z,7.70
2023-02-22T00:56:25.376Z,7.71
2023-02-22T00:58:28.912Z,7.72
2023-02-22T01:00:37.230Z,7.72
2023-02-22T01:02:40.638Z,7.73
2023-02-22T01:04:44.161Z,7.72
2023-02-22T01:06:48.295Z,7.73
2023-02-22T01:08:51.513Z,7.73
2023-02-22T01:10:54.750Z,7.72
2023-02-22T01:13:01.041Z,7.71
2023-02-22T01:15:10.374Z,7.72
2023-02-22T01:17:13.550Z,7.72
2023-02-22T01:19:16.705Z,7.72
2023-02-22T01:21:20.182Z,7.74
2023-02-22T01:23:23.437Z,7.75
2023-02-22T01:25:28.928Z,7.77
2023-02-22T01:27:32.313Z,7.80
2023-02-22T01:29:36.880Z,7.81
2023-02-22T01:31:44.121Z,7.82
2023-02-22T01:33:48.289Z,7.83
2023-02-22T01:35:52.238Z,7.83
2023-02-22T01:37:55.588Z,7.84
2023-02-22T01:39:58.863Z,7.84
2023-02-22T01:42:02.118Z,7.85
2023-02-22T01:44:20.486Z,7.82
2023-02-22T01:46:27.268Z,7.82
2023-02-22T01:48:39.521Z,7.81
2023-02-22T01:50:46.354Z,7.80
2023-02-22T01:52:50.194Z,7.79
2023-02-22T01:54:58.056Z,7.78
2023-02-22T01:57:07.662Z,7.77
2023-02-22T01:59:13.296Z,7.76
2023-02-22T02:01:17.920Z,7.75
2023-02-22T02:03:27.559Z,7.74
2023-02-22T02:05:34.346Z,7.73
2023-02-22T02:07:39.350Z,7.72
2023-02-22T02:09:49.134Z,7.71
2023-02-22T02:11:52.536Z,7.71
2023-02-22T02:13:59.132Z,7.70
2023-02-22T02:16:04.260Z,7.68
2023-02-22T02:18:12.017Z,7.67
2023-02-22T02:20:23.574Z,7.66
2023-02-22T02:22:47.692Z,7.65
2023-02-22T02:25:26.658Z,7.64
2023-02-22T02:27:40.099Z,7.62
2023-02-22T02:30:25.946Z,7.62
2023-02-22T02:32:53.375Z,7.63
2023-02-22T02:35:02.116Z,7.60
2023-02-22T02:37:13.604Z,7.58
2023-02-22T02:39:21.601Z,7.58
2023-02-22T02:41:29.282Z,7.58
2023-02-22T02:43:38.224Z,7.58
2023-02-22T02:45:48.517Z,7.58
2023-02-22T02:47:58.698Z,7.57
2023-02-22T02:50:09.932Z,7.57
2023-02-22T02:52:14.529Z,7.58
2023-02-22T02:54:19.032Z,7.56
2023-02-22T02:56:23.461Z,7.55
2023-02-22T02:58:26.891Z,7.55
2023-02-22T03:00:39.331Z,7.55
2023-02-22T03:02:50.625Z,7.54
2023-02-22T03:05:12.911Z,7.54
2023-02-22T03:07:34.571Z,7.54
2023-02-22T03:09:48.034Z,7.52
2023-02-22T03:12:03.382Z,7.52
2023-02-22T03:14:17.825Z,7.49
2023-02-22T03:16:30.259Z,7.48
2023-02-22T03:18:44.279Z,7.48
2023-02-22T03:20:54.545Z,7.48
2023-02-22T03:23:04.914Z,7.49
2023-02-22T03:25:11.501Z,7.50
2023-02-22T03:27:21.827Z,7.49
2023-02-22T03:29:35.569Z,7.48
2023-02-22T03:31:45.159Z,7.47
2023-02-22T03:33:54.432Z,7.45
2023-02-22T03:36:03.527Z,7.45
2023-02-22T03:38:16.069Z,7.45
2023-02-22T03:40:26.552Z,7.44
2023-02-22T03:42:34.318Z,7.45
2023-02-22T03:44:42.521Z,7.43
2023-02-22T03:46:47.484Z,7.42
2023-02-22T03:48:55.296Z,7.42
2023-02-22T03:51:04.485Z,7.39
2023-02-22T03:53:08.749Z,7.38
2023-02-22T03:55:17.797Z,7.39
2023-02-22T03:57:26.887Z,7.39
2023-02-22T03:59:39.140Z,7.39
2023-02-22T04:01:43.105Z,7.37
2023-02-22T04:03:46.450Z,7.37
2023-02-22T04:05:50.580Z,7.37
2023-02-22T04:07:56.544Z,7.38
2023-02-22T04:09:59.842Z,7.38
2023-02-22T04:12:04.192Z,7.38
2023-02-22T04:14:13.114Z,7.38
2023-02-22T04:16:16.633Z,7.39
2023-02-22T04:18:20.594Z,7.40
2023-02-22T04:20:26.298Z,7.40
2023-02-22T04:22:49.758Z,7.42
2023-02-22T04:24:54.594Z,7.42
2023-02-22T04:26:58.544Z,7.41
2023-02-22T04:29:02.338Z,7.41
2023-02-22T04:31:12.309Z,7.40
2023-02-22T04:33:17.119Z,7.40
2023-02-22T04:35:20.409Z,7.39
2023-02-22T04:37:23.682Z,7.41
2023-02-22T04:39:27.369Z,7.40
2023-02-22T04:41:32.339Z,7.41
2023-02-22T04:43:35.572Z,7.41
2023-02-22T04:45:53.284Z,7.41
2023-02-22T04:47:56.532Z,7.42
2023-02-22T04:50:00.437Z,7.41
2023-02-22T04:52:03.993Z,7.42
2023-02-22T04:54:11.435Z,7.42
2023-02-22T04:56:18.906Z,7.42
2023-02-22T04:58:24.493Z,7.42
2023-02-22T05:00:27.852Z,7.42
2023-02-22T05:02:35.929Z,7.42
2023-02-22T05:04:40.108Z,7.43
2023-02-22T05:06:43.283Z,7.44
2023-02-22T05:08:46.438Z,7.45
2023-02-22T05:10:49.593Z,7.46
2023-02-22T05:12:52.857Z,7.47
2023-02-22T05:14:57.463Z,7.48
2023-02-22T05:17:01.299Z,7.49
2023-02-22T05:19:04.614Z,7.49
2023-02-22T05:21:08.009Z,7.49
2023-02-22T05:23:11.245Z,7.49
2023-02-22T05:25:14.469Z,7.51
2023-02-22T05:27:17.655Z,7.51
2023-02-22T05:29:21.431Z,7.51
2023-02-22T05:31:26.098Z,7.53
2023-02-22T05:33:29.851Z,7.54
2023-02-22T05:35:33.675Z,7.55
2023-02-22T05:37:37.262Z,7.56
2023-02-22T05:39:40.452Z,7.56
2023-02-22T05:41:43.698Z,7.56
2023-02-22T05:43:46.934Z,7.56
2023-02-22T05:45:50.269Z,7.57
2023-02-22T05:47:55.940Z,7.57
2023-02-22T05:49:59.313Z,7.58
2023-02-22T05:52:02.578Z,7.59
2023-02-22T05:54:06.006Z,7.59
2023-02-22T05:56:09.498Z,7.61
2023-02-22T05:58:12.722Z,7.62
2023-02-22T06:00:19.137Z,7.63
2023-02-22T06:02:22.464Z,7.63
2023-02-22T06:04:27.907Z,7.62
2023-02-22T06:06:31.189Z,7.63
2023-02-22T06:08:34.540Z,7.63
2023-02-22T06:10:37.822Z,7.63
2023-02-22T06:12:41.700Z,7.63
2023-02-22T06:14:46.040Z,7.65
2023-02-22T06:16:53.894Z,7.66
2023-02-22T06:18:57.119Z,7.67
2023-02-22T06:21:02.126Z,7.66
2023-02-22T06:23:05.383Z,7.65
2023-02-22T06:25:10.538Z,7.63
2023-02-22T06:27:13.990Z,7.63
2023-02-22T06:29:17.275Z,7.62
2023-02-22T06:31:20.751Z,7.62
2023-02-22T06:33:24.117Z,7.62
2023-02-22T06:35:27.551Z,7.60
2023-02-22T06:37:32.174Z,7.59
2023-02-22T06:39:35.408Z,7.58
2023-02-22T06:41:38.666Z,7.58
2023-02-22T06:43:41.877Z,7.56
2023-02-22T06:45:45.295Z,7.57
2023-02-22T06:47:50.165Z,7.58
2023-02-22T06:49:57.221Z,7.59
2023-02-22T06:52:00.458Z,7.59
2023-02-22T06:54:06.166Z,7.59
2023-02-22T06:56:09.436Z,7.58
2023-02-22T06:58:12.631Z,7.59
2023-02-22T07:00:18.792Z,7.60
2023-02-22T07:02:22.120Z,7.60
2023-02-22T07:04:25.338Z,7.61
2023-02-22T07:06:28.684Z,7.62
2023-02-22T07:08:32.103Z,7.63
2023-02-22T07:10:38.385Z,7.66
2023-02-22T07:12:41.621Z,7.67
2023-02-22T07:14:44.849Z,7.67
2023-02-22T07:16:48.092Z,7.67
2023-02-22T07:18:51.293Z,7.67
2023-02-22T07:20:54.735Z,7.66
2023-02-22T07:22:57.905Z,7.67
2023-02-22T07:25:01.377Z,7.68
2023-02-22T07:27:06.250Z,7.68
2023-02-22T07:29:11.355Z,7.68
2023-02-22T07:31:15.221Z,7.68
2023-02-22T07:33:18.602Z,7.70
2023-02-22T07:35:24.145Z,7.72
2023-02-22T07:37:27.516Z,7.76
2023-02-22T07:39:31.332Z,7.77
2023-02-22T07:41:34.507Z,7.80
2023-02-22T07:43:39.093Z,7.81
2023-02-22T07:45:42.717Z,7.87
2023-02-22T07:47:47.583Z,7.89
2023-02-22T07:49:50.801Z,7.91
2023-02-22T07:51:54.153Z,7.95
2023-02-22T07:53:57.390Z,7.96
2023-02-22T07:56:02.829Z,7.97
2023-02-22T07:58:08.369Z,7.99
2023-02-22T08:00:16.602Z,8.01
2023-02-22T08:02:27.752Z,8.05
2023-02-22T08:04:30.926Z,8.08
2023-02-22T08:06:34.150Z,8.11
2023-02-22T08:08:37.319Z,8.15
2023-02-22T08:10:40.508Z,8.19
2023-02-22T08:12:43.864Z,8.23
2023-02-22T08:14:47.103Z,8.24
2023-02-22T08:16:51.678Z,8.26
2023-02-22T08:18:54.930Z,8.29
2023-02-22T08:20:58.251Z,8.30
2023-02-22T08:23:01.501Z,8.32
2023-02-22T08:25:04.786Z,8.32
2023-02-22T08:27:08.692Z,8.35
2023-02-22T08:29:11.983Z,8.37
2023-02-22T08:31:15.459Z,8.39
2023-02-22T08:33:20.532Z,8.41
2023-02-22T08:35:24.260Z,8.43
2023-02-22T08:37:27.656Z,8.45
2023-02-22T08:39:30.852Z,8.47
2023-02-22T08:41:34.083Z,8.49
2023-02-22T08:43:37.353Z,8.52
2023-02-22T08:45:40.733Z,8.54
2023-02-22T08:47:44.692Z,8.57
2023-02-22T08:49:49.386Z,8.58
2023-02-22T08:51:52.564Z,8.59
2023-02-22T08:53:56.134Z,8.59
2023-02-22T08:55:59.338Z,8.61
2023-02-22T08:58:03.929Z,8.63
2023-02-22T09:00:08.696Z,8.64
2023-02-22T09:02:16.942Z,8.65
2023-02-22T09:04:20.163Z,8.70
2023-02-22T09:06:25.219Z,8.72
2023-02-22T09:08:28.953Z,8.73
2023-02-22T09:10:34.520Z,8.78
2023-02-22T09:12:37.826Z,8.83
2023-02-22T09:14:42.972Z,8.88
2023-02-22T09:16:46.438Z,8.94
2023-02-22T09:18:49.732Z,9.00
2023-02-22T09:20:53.467Z,9.03
2023-02-22T09:22:58.521Z,9.06
2023-02-22T09:25:11.249Z,9.09
2023-02-22T09:27:21.889Z,9.07
2023-02-22T09:29:27.334Z,9.07
2023-02-22T09:31:30.609Z,9.04
2023-02-22T09:33:33.859Z,8.99
2023-02-22T09:35:38.014Z,8.92
2023-02-22T09:37:44.619Z,8.86
2023-02-22T09:39:49.471Z,8.82
2023-02-22T09:41:59.328Z,8.79
2023-02-22T09:44:15.483Z,8.76
2023-02-22T09:46:24.421Z,8.78
2023-02-22T09:48:27.950Z,8.78
2023-02-22T09:50:35.714Z,8.79
2023-02-22T09:52:55.521Z,8.81
2023-02-22T09:55:10.362Z,8.81
2023-02-22T09:57:20.162Z,8.83
2023-02-22T09:59:27.039Z,8.84
2023-02-22T10:01:34.993Z,8.85
2023-02-22T10:03:48.822Z,8.86
2023-02-22T10:06:00.517Z,8.88
2023-02-22T10:08:06.184Z,8.91
2023-02-22T10:10:18.170Z,8.94
2023-02-22T10:12:30.751Z,8.99
2023-02-22T10:14:50.012Z,9.05
2023-02-22T10:16:59.482Z,9.09
2023-02-22T10:19:18.462Z,9.13
2023-02-22T10:21:42.822Z,9.19
2023-02-22T10:23:55.743Z,9.27
2023-02-22T10:26:13.539Z,9.31
2023-02-22T10:28:22.746Z,9.35
2023-02-22T10:30:31.476Z,9.39
2023-02-22T10:32:45.451Z,9.44
2023-02-22T10:34:51.543Z,9.50
2023-02-22T10:36:58.957Z,9.55
2023-02-22T10:39:13.363Z,9.62
2023-02-22T10:41:25.006Z,9.70
2023-02-22T10:43:28.580Z,9.77
2023-02-22T10:45:33.791Z,9.84
2023-02-22T10:47:37.757Z,9.93
2023-02-22T10:49:44.444Z,10.01
2023-02-22T10:51:49.472Z,10.05
2023-02-22T10:54:00.791Z,10.06
2023-02-22T10:56:14.242Z,10.05
2023-02-22T10:58:19.394Z,10.03
2023-02-22T11:00:37.310Z,10.04
2023-02-22T11:02:40.650Z,10.06
2023-02-22T11:04:49.605Z,10.08
2023-02-22T11:07:09.024Z,10.09
2023-02-22T11:09:15.405Z,10.11
2023-02-22T11:11:28.893Z,10.12
2023-02-22T11:13:35.149Z,10.13
2023-02-22T11:15:38.417Z,10.15
2023-02-22T11:17:42.179Z,10.17
2023-02-22T11:19:48.572Z,10.19
2023-02-22T11:21:54.283Z,10.24
2023-02-22T11:24:05.107Z,10.33
2023-02-22T11:26:11.335Z,10.40
2023-02-22T11:28:20.775Z,10.49
2023-02-22T11:30:31.741Z,10.64
2023-02-22T11:32:36.549Z,10.77
2023-02-22T11:34:42.719Z,10.93
2023-02-22T11:36:46.800Z,11.11
2023-02-22T11:38:58.527Z,11.28
2023-02-22T11:41:17.360Z,11.46
2023-02-22T11:43:21.860Z,11.63
2023-02-22T11:45:25.809Z,11.77
2023-02-22T11:47:30.565Z,11.92
2023-02-22T11:49:35.783Z,12.03
2023-02-22T11:52:06.716Z,12.10
2023-02-22T11:54:31.287Z,12.11
2023-02-22T11:56:40.555Z,12.09
2023-02-22T11:58:49.425Z,12.04
2023-02-22T12:00:59.837Z,11.96
2023-02-22T12:03:29.372Z,11.88
2023-02-22T12:05:45.776Z,11.82
2023-02-22T12:08:13.779Z,11.77
2023-02-22T12:10:33.016Z,11.71
2023-02-22T12:12:49.279Z,11.68
2023-02-22T12:15:00.350Z,11.68
2023-02-22T12:17:19.609Z,11.70
2023-02-22T12:19:31.330Z,11.78
2023-02-22T12:21:37.477Z,11.85
2023-02-22T12:23:46.161Z,11.91
2023-02-22T12:25:58.886Z,11.92
2023-02-22T12:28:23.684Z,11.92
2023-02-22T12:30:31.384Z,11.93
2023-02-22T12:32:41.777Z,11.95
2023-02-22T12:34:50.010Z,12.01
2023-02-22T12:36:57.967Z,12.06
2023-02-22T12:39:07.397Z,12.12
2023-02-22T12:41:18.451Z,12.16
2023-02-22T12:43:28.709Z,12.16
2023-02-22T12:45:38.134Z,12.17
2023-02-22T12:47:56.689Z,12.22
2023-02-22T12:50:06.768Z,12.26
2023-02-22T12:52:21.843Z,12.27
2023-02-22T12:54:43.217Z,12.28
2023-02-22T12:56:51.932Z,12.28
2023-02-22T12:59:02.921Z,12.28
2023-02-22T13:01:13.599Z,12.32
2023-02-22T13:03:31.807Z,12.35
2023-02-22T13:05:40.767Z,12.36
2023-02-22T13:07:53.594Z,12.34
2023-02-22T13:10:15.473Z,12.33
2023-02-22T13:12:22.906Z,12.31
2023-02-22T13:14:39.869Z,12.26
2023-02-22T13:16:52.610Z,12.22
2023-02-22T13:19:04.548Z,12.21
2023-02-22T13:21:17.890Z,12.18
2023-02-22T13:23:37.315Z,12.16
2023-02-22T13:25:46.756Z,12.11
2023-02-22T13:27:54.536Z,12.07
2023-02-22T13:30:00.155Z,12.03
2023-02-22T13:32:19.543Z,12.00
2023-02-22T13:34:51.563Z,11.99
2023-02-22T13:37:13.617Z,11.98
2023-02-22T13:39:44.142Z,11.96
2023-02-22T13:41:56.256Z,11.95
2023-02-22T13:44:24.280Z,11.94
2023-02-22T13:47:02.961Z,11.89
2023-02-22T13:49:19.980Z,11.85
2023-02-22T13:51:51.679Z,11.81
2023-02-22T13:53:59.936Z,11.80
2023-02-22T13:56:03.427Z,11.79
2023-02-22T13:58:08.777Z,11.76
2023-02-22T14:00:24.436Z,11.72
2023-02-22T14:02:36.784Z,11.69
2023-02-22T14:04:41.725Z,11.65
2023-02-22T14:06:45.857Z,11.61
2023-02-22T14:08:49.191Z,11.58
2023-02-22T14:10:56.283Z,11.54
2023-02-22T14:13:05.944Z,11.51
2023-02-22T14:15:32.694Z,11.48
2023-02-22T14:17:36.062Z,11.45
2023-02-22T14:19:39.577Z,11.41
2023-02-22T14:22:02.105Z,11.36
2023-02-22T14:24:10.993Z,11.32
2023-02-22T14:26:19.506Z,11.30
2023-02-22T14:28:40.653Z,11.27
2023-02-22T14:30:44.042Z,11.25
2023-02-22T14:32:49.215Z,11.22
2023-02-22T14:34:58.088Z,11.19
2023-02-22T14:37:05.878Z,11.18
2023-02-22T14:39:20.080Z,11.16
2023-02-22T14:41:28.795Z,11.13
2023-02-22T14:43:36.873Z,11.11
2023-02-22T14:45:47.272Z,11.10
2023-02-22T14:48:01.232Z,11.10
2023-02-22T14:50:07.945Z,11.10
2023-02-22T14:52:22.605Z,11.10
2023-02-22T14:54:31.656Z,11.10
2023-02-22T14:56:44.197Z,11.07
2023-02-22T14:58:50.774Z,11.05
2023-02-22T15:00:56.949Z,11.04
2023-02-22T15:03:01.609Z,11.03
2023-02-22T15:05:05.274Z,11.01
2023-02-22T15:07:20.584Z,10.98
2023-02-22T15:09:29.184Z,10.96
2023-02-22T15:11:33.662Z,10.92
2023-02-22T15:13:39.232Z,10.89
2023-02-22T15:15:46.935Z,10.87
2023-02-22T15:17:56.952Z,10.86
2023-02-22T15:20:00.296Z,10.84
2023-02-22T15:22:04.160Z,10.83
2023-02-22T15:24:09.068Z,10.79
2023-02-22T15:26:23.944Z,10.78
2023-02-22T15:28:30.965Z,10.75
2023-02-22T15:30:35.782Z,10.73
2023-02-22T15:32:53.284Z,10.72
2023-02-22T15:35:14.396Z,10.69
2023-02-22T15:37:25.447Z,10.68
2023-02-22T15:39:33.181Z,10.65
2023-02-22T15:41:37.030Z,10.63
2023-02-22T15:43:40.817Z,10.62
2023-02-22T15:45:46.796Z,10.59
2023-02-22T15:47:51.127Z,10.54
2023-02-22T15:50:17.213Z,10.53
2023-02-22T15:52:25.015Z,10.51
2023-02-22T15:54:28.338Z,10.50
2023-02-22T15:56:35.971Z,10.48
2023-02-22T15:58:40.137Z,10.46
2023-02-22T16:00:48.825Z,10.45
2023-02-22T16:02:53.018Z,10.43
2023-02-22T16:05:00.809Z,10.43
2023-02-22T16:07:16.845Z,10.43
2023-02-22T16:09:23.117Z,10.42
2023-02-22T16:11:31.069Z,10.39
2023-02-22T16:13:36.844Z,10.38
2023-02-22T16:15:40.029Z,10.37
2023-02-22T16:18:01.077Z,10.35
2023-02-22T16:20:34.008Z,10.33
2023-02-22T16:22:37.868Z,10.31
2023-02-22T16:24:41.628Z,10.30
2023-02-22T16:27:04.528Z,10.29
2023-02-22T16:29:11.107Z,10.27
2023-02-22T16:31:14.769Z,10.27
2023-02-22T16:33:19.517Z,10.25
2023-02-22T16:35:28.464Z,10.24
2023-02-22T16:37:31.814Z,10.22
2023-02-22T16:39:36.152Z,10.20
2023-02-22T16:41:39.696Z,10.18
2023-02-22T16:43:46.298Z,10.16
2023-02-22T16:45:49.552Z,10.13
2023-02-22T16:47:53.800Z,10.12
2023-02-22T16:49:58.445Z,10.10
2023-02-22T16:52:03.376Z,10.09
2023-02-22T16:54:07.191Z,10.07
2023-02-22T16:56:13.062Z,10.05
2023-02-22T16:58:18.968Z,10.02
2023-02-22T17:00:31.337Z,9.99
2023-02-22T17:02:34.920Z,9.97
2023-02-22T17:04:40.388Z,9.95
2023-02-22T17:06:45.119Z,9.94
2023-02-22T17:08:51.987Z,9.93
2023-02-22T17:10:56.815Z,9.91
2023-02-22T17:13:12.742Z,9.88
2023-02-22T17:15:26.384Z,9.87
2023-02-22T17:17:29.587Z,9.85
2023-02-22T17:19:32.795Z,9.82
2023-02-22T17:21:35.999Z,9.81
2023-02-22T17:23:40.953Z,9.78
2023-02-22T17:25:46.274Z,9.75
2023-02-22T17:27:49.712Z,9.73
2023-02-22T17:29:53.133Z,9.71
2023-02-22T17:31:56.565Z,9.70
2023-02-22T17:34:02.965Z,9.68
2023-02-22T17:36:07.078Z,9.67
2023-02-22T17:38:10.263Z,9.66
2023-02-22T17:40:15.732Z,9.65
2023-02-22T17:42:19.243Z,9.63
2023-02-22T17:44:22.545Z,9.61
2023-02-22T17:46:26.278Z,9.59
2023-02-22T17:48:29.509Z,9.58
2023-02-22T17:50:32.854Z,9.57
2023-02-22T17:52:36.056Z,9.55
2023-02-22T17:54:39.266Z,9.53
2023-02-22T17:56:43.839Z,9.52
2023-02-22T17:58:47.420Z,9.51
2023-02-22T18:00:51.498Z,9.49
2023-02-22T18:02:54.770Z,9.48
2023-02-22T18:04:57.965Z,9.47
2023-02-22T18:07:01.266Z,9.45
2023-02-22T18:09:10.761Z,9.43
2023-02-22T18:11:14.286Z,9.40
2023-02-22T18:13:19.156Z,9.37
2023-02-22T18:15:22.418Z,9.34
2023-02-22T18:17:25.627Z,9.32
2023-02-22T18:19:29.276Z,9.30
2023-02-22T18:21:32.557Z,9.30
2023-02-22T18:23:35.786Z,9.28
2023-02-22T18:25:40.168Z,9.27
2023-02-22T18:27:44.327Z,9.27
2023-02-22T18:29:49.002Z,9.24
2023-02-22T18:31:53.741Z,9.21
2023-02-22T18:33:57.582Z,9.21
2023-02-22T18:36:00.834Z,9.19
2023-02-22T18:38:04.925Z,9.17
2023-02-22T18:40:10.690Z,9.15
2023-02-22T18:42:15.130Z,9.13
2023-02-22T18:44:19.397Z,9.11
2023-02-22T18:46:26.022Z,9.10
2023-02-22T18:48:29.191Z,9.08
2023-02-22T18:50:32.448Z,9.08
2023-02-22T18:52:44.811Z,9.07
2023-02-22T18:54:50.082Z,9.06
2023-02-22T18:56:53.226Z,9.06
2023-02-22T18:58:58.617Z,9.02
2023-02-22T19:01:02.246Z,9.00
2023-02-22T19:03:07.235Z,8.99
2023-02-22T19:05:11.116Z,8.98
2023-02-22T19:07:17.978Z,8.97
2023-02-22T19:09:21.325Z,8.93
2023-02-22T19:11:26.077Z,8.92
2023-02-22T19:13:29.314Z,8.90
2023-02-22T19:15:32.522Z,8.88
2023-02-22T19:17:36.635Z,8.88
2023-02-22T19:19:41.238Z,8.86
2023-02-22T19:21:44.485Z,8.84
2023-02-22T19:23:48.576Z,8.83
2023-02-22T19:25:52.336Z,8.79
2023-02-22T19:27:56.814Z,8.77
2023-02-22T19:30:00.407Z,8.77
2023-02-22T19:32:03.681Z,8.74
2023-02-22T19:34:08.986Z,8.74
2023-02-22T19:36:15.449Z,8.71
2023-02-22T19:38:19.672Z,8.70
2023-02-22T19:40:23.640Z,8.69
2023-02-22T19:42:26.978Z,8.68
2023-02-22T19:44:30.388Z,8.66
2023-02-22T19:46:34.359Z,8.66
2023-02-22T19:48:38.609Z,8.64
2023-02-22T19:50:48.969Z,8.62
2023-02-22T19:52:55.993Z,8.60
2023-02-22T19:55:00.003Z,8.58
2023-02-22T19:57:03.730Z,8.58
2023-02-22T19:59:13.437Z,8.57
2023-02-22T20:01:22.977Z,8.56
2023-02-22T20:03:27.020Z,8.54
2023-02-22T20:05:32.391Z,8.53
2023-02-22T20:07:35.589Z,8.50
2023-02-22T20:09:40.406Z,8.49
2023-02-22T20:11:43.710Z,8.49
2023-02-22T20:13:46.963Z,8.47
2023-02-22T20:15:50.865Z,8.46
2023-02-22T20:17:55.630Z,8.46
2023-02-22T20:19:58.848Z,8.44
2023-02-22T20:22:02.086Z,8.44
2023-02-22T20:24:08.551Z,8.44
2023-02-22T20:26:19.335Z,8.44
2023-02-22T20:28:22.965Z,8.42
2023-02-22T20:30:26.254Z,8.42
2023-02-22T20:32:31.853Z,8.39
2023-02-22T20:34:36.252Z,8.36
2023-02-22T20:36:41.429Z,8.34
2023-02-22T20:38:45.558Z,8.31
2023-02-22T20:40:48.931Z,8.30
2023-02-22T20:42:53.595Z,8.29
2023-02-22T20:45:01.722Z,8.28
2023-02-22T20:47:05.265Z,8.26
2023-02-22T20:49:11.158Z,8.24
2023-02-22T20:51:16.679Z,8.24
2023-02-22T20:53:20.354Z,8.23
2023-02-22T20:55:23.634Z,8.25
2023-02-22T20:57:26.949Z,8.24
2023-02-22T20:59:31.536Z,8.26
2023-02-22T21:01:34.844Z,8.29
2023-02-22T21:03:38.040Z,8.31
2023-02-22T21:05:43.757Z,8.32
2023-02-22T21:07:47.000Z,8.32
2023-02-22T21:09:50.528Z,8.33
2023-02-22T21:11:53.723Z,8.31
2023-02-22T21:13:57.316Z,8.29
2023-02-22T21:16:01.858Z,8.29
2023-02-22T21:18:06.040Z,8.31
2023-02-22T21:20:12.239Z,8.29
2023-02-22T21:22:15.619Z,8.29
2023-02-22T21:24:18.786Z,8.30
2023-02-22T21:26:24.566Z,8.31
2023-02-22T21:28:32.441Z,8.32
2023-02-22T21:30:46.660Z,8.31
2023-02-22T21:32:53.902Z,8.31
2023-02-22T21:34:57.087Z,8.31
2023-02-22T21:37:00.292Z,8.29
2023-02-22T21:39:08.478Z,8.29
2023-02-22T21:41:12.489Z,8.25
2023-02-22T21:43:16.708Z,8.23
2023-02-22T21:45:22.651Z,8.21
2023-02-22T21:47:27.675Z,8.20
2023-02-22T21:49:32.424Z,8.20
2023-02-22T21:51:37.741Z,8.19
2023-02-22T21:53:46.097Z,8.17
2023-02-22T21:55:49.518Z,8.15
2023-02-22T21:57:52.706Z,8.13
2023-02-22T21:59:55.963Z,8.11
2023-02-22T22:01:59.143Z,8.09
2023-02-22T22:04:03.416Z,8.09
2023-02-22T22:06:11.179Z,8.11
2023-02-22T22:08:19.509Z,8.11
2023-02-22T22:10:27.580Z,8.11
2023-02-22T22:12:38.797Z,8.12
2023-02-22T22:14:42.771Z,8.10
2023-02-22T22:16:47.990Z,8.07
2023-02-22T22:18:51.282Z,8.05
2023-02-22T22:20:56.035Z,8.02
2023-02-22T22:23:00.587Z,8.00
2023-02-22T22:25:10.334Z,7.97
2023-02-22T22:27:13.556Z,7.95
2023-02-22T22:29:16.896Z,7.92
2023-02-22T22:31:21.943Z,7.90
2023-02-22T22:33:25.440Z,7.88
2023-02-22T22:35:28.699Z,7.88
2023-02-22T22:37:32.359Z,7.86
2023-02-22T22:39:38.488Z,7.83
2023-02-22T22:41:42.106Z,7.81
2023-02-22T22:43:46.222Z,7.77
2023-02-22T22:45:49.402Z,7.75
2023-02-22T22:47:53.053Z,7.74
2023-02-22T22:50:01.446Z,7.71
2023-02-22T22:52:04.878Z,7.67
2023-02-22T22:54:09.535Z,7.63
2023-02-22T22:56:16.310Z,7.60
2023-02-22T22:58:19.655Z,7.58
2023-02-22T23:00:29.675Z,7.57
2023-02-22T23:02:32.858Z,7.54
2023-02-22T23:04:38.025Z,7.53
2023-02-22T23:06:43.053Z,7.52
2023-02-22T23:08:46.240Z,7.51
2023-02-22T23:10:49.423Z,7.50
2023-02-22T23:12:54.873Z,7.46
2023-02-22T23:14:58.467Z,7.44
2023-02-22T23:17:03.531Z,7.40
2023-02-22T23:19:08.749Z,7.36
2023-02-22T23:21:12.188Z,7.33
2023-02-22T23:23:15.402Z,7.33
2023-02-22T23:25:19.802Z,7.31
2023-02-22T23:27:23.734Z,7.29
2023-02-22T23:29:29.926Z,7.28
2023-02-22T23:31:33.493Z,7.28
2023-02-22T23:33:38.301Z,7.28
2023-02-22T23:35:42.494Z,7.28
2023-02-22T23:37:46.342Z,7.27
2023-02-22T23:39:50.965Z,7.25
2023-02-22T23:41:55.761Z,7.23
2023-02-22T23:44:00.039Z,7.21
2023-02-22T23:46:10.854Z,7.19
2023-02-22T23:48:14.096Z,7.17
2023-02-22T23:50:19.146Z,7.14
2023-02-22T23:52:24.633Z,7.11
2023-02-22T23:54:36.075Z,7.09
2023-02-22T23:56:40.447Z,7.05
2023-02-22T23:58:47.052Z,7.03
